Time;durP1;ratioP1;P1;durP2;ratioP2;P2;SDS_P1;SDS_P2;PMS_P1;PMS_P2;Temp;Humidity;BMP_temperature;BMP_pressure;BME280_temperature;BME280_humidity;BME280_pressure;Samples;Min_cycle;Max_cycle;Signal;HPM_P1;HPM_P2
2023/11/02 00:01:56;;;;;;;1.87;1.20;;;11.50;99.90;;;;;;4993427;28;20253;-74
2023/11/02 00:04:23;;;;;;;1.00;0.80;;;11.50;99.90;;;;;;4980163;28;20557;-74
2023/11/02 00:06:49;;;;;;;3.43;0.70;;;11.50;99.90;;;;;;4978091;28;20472;-74
2023/11/02 00:09:33;;;;;;;3.17;1.20;;;11.50;99.90;;;;;;4978592;28;20586;-75
2023/11/02 00:12:02;;;;;;;7.90;1.27;;;11.40;99.90;;;;;;4978405;28;20477;-74
2023/11/02 00:14:33;;;;;;;1.47;1.37;;;11.30;99.90;;;;;;4981706;28;20478;-73
2023/11/02 00:17:00;;;;;;;1.93;1.30;;;11.30;99.90;;;;;;4978635;28;20549;-73
2023/11/02 00:19:37;;;;;;;2.17;0.97;;;11.30;99.90;;;;;;4985721;28;20484;-74
2023/11/02 00:22:07;;;;;;;1.70;1.30;;;11.20;99.90;;;;;;4965077;28;20481;-74
2023/11/02 00:24:52;;;;;;;2.23;1.17;;;11.20;99.90;;;;;;4980967;28;20458;-75
2023/11/02 00:27:18;;;;;;;1.57;0.93;;;11.20;99.90;;;;;;4984487;28;20464;-73
2023/11/02 00:29:44;;;;;;;1.03;0.90;;;11.20;99.90;;;;;;4977752;28;20464;-74
2023/11/02 00:32:10;;;;;;;1.13;0.90;;;11.20;99.90;;;;;;5005229;28;20980;-73
2023/11/02 00:34:39;;;;;;;5.80;1.37;;;11.20;99.90;;;;;;4988354;28;20269;-74
2023/11/02 00:37:06;;;;;;;1.17;1.00;;;11.20;99.90;;;;;;5001497;28;20465;-75
2023/11/02 00:39:32;;;;;;;1.03;0.90;;;11.00;99.90;;;;;;5000998;28;20492;-74
2023/11/02 00:41:58;;;;;;;1.17;1.07;;;11.00;99.90;;;;;;4981400;28;20503;-75
2023/11/02 00:44:26;;;;;;;0.70;0.70;;;11.00;99.90;;;;;;5004278;28;20218;-73
2023/11/02 00:46:52;;;;;;;1.13;1.03;;;11.00;99.90;;;;;;4999364;28;20492;-73
2023/11/02 00:49:21;;;;;;;4.50;1.17;;;11.00;99.90;;;;;;5019792;28;20527;-74
2023/11/02 00:51:56;;;;;;;1.20;0.80;;;11.00;99.90;;;;;;5000217;28;20267;-75
2023/11/02 00:54:40;;;;;;;1.03;0.93;;;11.00;99.90;;;;;;5002954;28;20495;-74
2023/11/02 00:57:07;;;;;;;0.97;0.90;;;11.00;99.90;;;;;;5002130;28;20465;-74
2023/11/02 00:59:34;;;;;;;1.30;1.20;;;11.00;99.90;;;;;;5000695;28;20486;-74
2023/11/02 01:02:00;;;;;;;1.63;1.47;;;11.00;99.90;;;;;;4999343;28;20464;-75
2023/11/02 01:04:44;;;;;;;0.90;0.90;;;11.00;99.90;;;;;;5006188;28;20840;-74
2023/11/02 01:07:10;;;;;;;1.10;0.90;;;11.00;99.90;;;;;;4984467;28;20254;-75
2023/11/02 01:09:51;;;;;;;3.17;1.20;;;11.00;99.90;;;;;;4995705;28;20528;-75
2023/11/02 01:12:26;;;;;;;0.90;0.90;;;11.00;99.90;;;;;;4988613;28;20475;-74
2023/11/02 01:14:52;;;;;;;1.10;1.00;;;10.90;99.90;;;;;;4992596;28;20457;-74
2023/11/02 01:17:33;;;;;;;1.50;1.07;;;10.90;99.90;;;;;;4989204;28;20469;-73
2023/11/02 01:20:11;;;;;;;0.93;0.93;;;10.80;99.90;;;;;;4979246;28;20618;-75
2023/11/02 01:22:46;;;;;;;1.00;1.00;;;10.80;99.90;;;;;;4980674;28;20480;-74
2023/11/02 01:25:12;;;;;;;1.77;1.20;;;10.80;99.90;;;;;;4984396;28;20473;-74
2023/11/02 01:27:39;;;;;;;1.67;1.37;;;10.70;99.90;;;;;;5000284;28;20465;-74
2023/11/02 01:30:30;;;;;;;1.43;1.13;;;10.80;99.90;;;;;;4981783;28;20472;-75
2023/11/02 01:32:56;;;;;;;1.50;1.10;;;10.90;99.90;;;;;;4999119;28;20546;-74
2023/11/02 01:35:43;;;;;;;10.00;1.10;;;10.90;99.90;;;;;;5002688;28;20972;-75
2023/11/02 01:38:13;;;;;;;1.17;1.07;;;10.80;99.90;;;;;;5004489;28;20461;-75
2023/11/02 01:40:49;;;;;;;1.30;1.20;;;10.80;99.90;;;;;;5003512;28;20464;-74
2023/11/02 01:43:26;;;;;;;1.07;1.00;;;10.70;99.90;;;;;;5004124;28;20464;-75
2023/11/02 01:45:56;;;;;;;1.10;1.00;;;10.70;99.90;;;;;;4989405;28;20461;-74
2023/11/02 01:48:35;;;;;;;1.47;1.37;;;10.70;99.90;;;;;;5002432;28;20462;-74
2023/11/02 01:51:18;;;;;;;1.30;1.20;;;10.70;99.90;;;;;;4985622;28;20448;-75
2023/11/02 01:53:48;;;;;;;0.90;0.80;;;10.70;99.90;;;;;;5002864;28;20487;-74
2023/11/02 01:56:34;;;;;;;2.07;1.00;;;10.70;99.90;;;;;;4989011;28;20453;-74
2023/11/02 01:59:24;;;;;;;2.80;1.03;;;10.80;99.90;;;;;;5002343;28;20476;-74
2023/11/02 02:02:19;;;;;;;1.70;1.30;;;10.90;99.90;;;;;;5000346;28;20473;-76
2023/11/02 02:05:01;;;;;;;1.20;1.10;;;10.90;99.90;;;;;;4998988;28;20461;-75
2023/11/02 02:07:46;;;;;;;3.00;0.87;;;10.90;99.90;;;;;;5004182;28;20475;-75
2023/11/02 02:10:19;;;;;;;1.03;1.03;;;10.90;99.90;;;;;;5003196;28;20461;-74
2023/11/02 02:12:47;;;;;;;1.70;1.20;;;10.90;99.90;;;;;;4999992;28;20476;-75
2023/11/02 02:15:32;;;;;;;0.80;0.80;;;10.90;99.90;;;;;;4990692;28;20537;-75
2023/11/02 02:18:43;;;;;;;4.93;1.20;;;10.90;99.90;;;;;;5001090;28;20547;-75
2023/11/02 02:21:18;;;;;;;1.20;1.20;;;10.90;99.90;;;;;;5002027;28;20500;-75
2023/11/02 02:24:01;;;;;;;1.20;1.10;;;10.90;99.90;;;;;;5000294;28;20480;-74
2023/11/02 02:27:09;;;;;;;1.20;1.10;;;10.90;99.90;;;;;;4985963;28;20544;-75
2023/11/02 02:30:06;;;;;;;1.43;0.80;;;10.90;99.90;;;;;;4997213;28;20461;-75
2023/11/02 02:33:11;;;;;;;1.93;1.40;;;10.90;99.90;;;;;;5003966;28;20449;-74
2023/11/02 02:35:49;;;;;;;2.50;1.10;;;10.80;99.90;;;;;;5003788;28;20464;-74
2023/11/02 02:38:21;;;;;;;1.50;1.10;;;10.80;99.90;;;;;;5003414;28;20457;-75
2023/11/02 02:40:57;;;;;;;2.70;1.10;;;10.80;99.90;;;;;;4984577;28;20453;-74
2023/11/02 02:43:23;;;;;;;1.47;1.10;;;10.80;99.90;;;;;;5002605;28;20827;-75
2023/11/02 02:45:49;;;;;;;1.20;1.20;;;10.90;99.90;;;;;;5001255;28;20457;-75
2023/11/02 02:48:17;;;;;;;1.13;1.03;;;10.80;99.90;;;;;;4987175;28;20466;-74
2023/11/02 02:50:45;;;;;;;1.20;1.10;;;10.70;99.90;;;;;;4985301;28;20971;-75
2023/11/02 02:53:14;;;;;;;1.57;1.00;;;10.70;99.90;;;;;;5003249;28;20527;-75
2023/11/02 02:55:43;;;;;;;1.00;0.90;;;10.70;99.90;;;;;;4999080;28;20453;-75
2023/11/02 02:58:12;;;;;;;1.07;0.97;;;10.80;99.90;;;;;;5002722;28;20461;-75
2023/11/02 03:00:39;;;;;;;1.70;1.00;;;10.80;99.90;;;;;;5004314;28;20457;-75
2023/11/02 03:03:06;;;;;;;0.70;0.70;;;10.80;99.90;;;;;;4985827;28;20533;-75
2023/11/02 03:05:35;;;;;;;3.00;1.27;;;10.70;99.90;;;;;;4984523;28;20526;-73
2023/11/02 03:08:03;;;;;;;2.80;1.10;;;10.60;99.90;;;;;;4981864;28;20461;-75
2023/11/02 03:10:33;;;;;;;1.13;1.03;;;10.60;99.90;;;;;;4984318;28;20460;-75
2023/11/02 03:13:00;;;;;;;0.90;0.80;;;10.60;99.90;;;;;;4980642;28;20516;-75
2023/11/02 03:15:30;;;;;;;1.30;1.20;;;10.50;99.90;;;;;;4984181;28;20483;-74
2023/11/02 03:18:02;;;;;;;1.80;1.20;;;10.50;99.90;;;;;;4977330;28;20468;-74
2023/11/02 03:20:28;;;;;;;1.07;1.00;;;10.50;99.90;;;;;;4988122;28;20474;-75
2023/11/02 03:23:07;;;;;;;2.20;1.17;;;10.50;99.90;;;;;;4987424;28;20533;-75
2023/11/02 03:25:33;;;;;;;2.27;1.37;;;10.60;99.90;;;;;;4984052;28;20222;-74
2023/11/02 03:28:48;;;;;;;1.70;1.13;;;10.50;99.90;;;;;;4984622;28;20998;-74
2023/11/02 03:31:19;;;;;;;1.73;0.73;;;10.40;99.90;;;;;;4986011;28;20226;-75
2023/11/02 03:33:57;;;;;;;0.80;0.80;;;10.30;99.90;;;;;;4965336;28;20466;-75
2023/11/02 03:36:31;;;;;;;2.90;1.10;;;10.30;99.90;;;;;;4982624;28;20812;-75
2023/11/02 03:39:19;;;;;;;1.20;1.10;;;10.30;99.90;;;;;;4980975;28;20460;-74
2023/11/02 03:41:52;;;;;;;2.50;1.30;;;10.40;99.90;;;;;;4991216;28;20499;-74
2023/11/02 03:44:54;;;;;;;4.83;1.23;;;10.40;99.90;;;;;;4983117;28;20465;-74
2023/11/02 03:47:42;;;;;;;1.40;1.10;;;10.50;99.90;;;;;;4974004;28;20453;-74
2023/11/02 03:50:14;;;;;;;1.00;0.80;;;10.40;99.90;;;;;;4987077;28;20460;-75
2023/11/02 03:53:00;;;;;;;0.80;0.80;;;10.40;99.90;;;;;;4994248;28;20593;-74
2023/11/02 03:55:41;;;;;;;1.10;1.00;;;10.40;99.90;;;;;;4990218;28;20453;-75
2023/11/02 03:58:32;;;;;;;1.13;0.70;;;10.30;99.90;;;;;;5000488;28;20462;-74
2023/11/02 04:01:21;;;;;;;1.20;1.00;;;10.30;99.90;;;;;;4995082;28;21054;-73
2023/11/02 04:03:54;;;;;;;1.30;0.67;;;10.30;99.90;;;;;;5016627;28;20889;-74
2023/11/02 04:06:30;;;;;;;1.47;0.90;;;10.30;99.90;;;;;;4997053;28;20464;-73
2023/11/02 04:09:03;;;;;;;0.97;0.77;;;10.30;99.90;;;;;;4999621;28;21069;-74
2023/11/02 04:11:36;;;;;;;1.00;0.70;;;10.20;99.90;;;;;;4983550;28;20532;-74
2023/11/02 04:14:13;;;;;;;1.23;1.13;;;10.30;99.90;;;;;;4982883;28;20988;-74
2023/11/02 04:16:39;;;;;;;3.03;1.07;;;10.20;99.90;;;;;;4991584;28;20455;-74
2023/11/02 04:19:06;;;;;;;1.00;0.90;;;10.20;99.90;;;;;;4990985;28;20479;-74
2023/11/02 04:21:32;;;;;;;3.60;1.10;;;10.30;99.90;;;;;;4971553;28;20458;-74
2023/11/02 04:23:58;;;;;;;1.87;1.00;;;10.20;99.90;;;;;;4991430;28;20991;-74
2023/11/02 04:26:24;;;;;;;1.43;0.90;;;10.20;99.90;;;;;;4973487;28;20562;-74
2023/11/02 04:28:49;;;;;;;1.00;0.90;;;10.20;99.90;;;;;;4967817;28;20293;-76
2023/11/02 04:31:15;;;;;;;1.63;0.90;;;10.10;99.90;;;;;;4982848;28;21095;-74
2023/11/02 04:33:43;;;;;;;2.40;0.90;;;10.10;99.90;;;;;;4982224;28;20256;-74
2023/11/02 04:36:09;;;;;;;1.67;1.17;;;10.10;99.90;;;;;;4982807;28;20322;-74
2023/11/02 04:38:35;;;;;;;0.83;0.80;;;10.10;99.90;;;;;;4990520;28;21048;-75
2023/11/02 04:41:01;;;;;;;1.77;1.03;;;10.00;99.90;;;;;;5000123;28;20218;-74
2023/11/02 04:43:26;;;;;;;1.20;1.10;;;10.10;99.90;;;;;;4994637;28;20216;-74
2023/11/02 04:45:52;;;;;;;2.20;0.90;;;10.10;99.90;;;;;;4997571;28;20219;-75
2023/11/02 04:48:18;;;;;;;0.73;0.73;;;10.10;99.90;;;;;;4993516;28;20229;-73
2023/11/02 04:50:44;;;;;;;1.47;0.87;;;10.10;99.90;;;;;;4982365;28;20646;-75
2023/11/02 04:53:10;;;;;;;1.20;1.00;;;10.10;99.90;;;;;;4986035;28;20210;-74
2023/11/02 04:55:37;;;;;;;1.23;0.63;;;10.10;99.90;;;;;;5002343;28;20464;-74
2023/11/02 04:58:03;;;;;;;1.07;0.97;;;10.10;99.90;;;;;;4999549;28;20232;-75
2023/11/02 05:00:29;;;;;;;1.27;0.90;;;10.10;99.90;;;;;;4995561;28;20481;-75
2023/11/02 05:02:54;;;;;;;1.90;1.07;;;10.20;99.90;;;;;;4985918;28;20215;-75
2023/11/02 05:05:20;;;;;;;0.77;0.70;;;10.20;99.90;;;;;;4987571;28;20453;-74
2023/11/02 05:07:46;;;;;;;0.70;0.70;;;10.20;99.90;;;;;;4990271;28;20312;-74
2023/11/02 05:10:11;;;;;;;1.10;1.00;;;10.20;99.90;;;;;;4992988;28;20360;-74
2023/11/02 05:12:37;;;;;;;0.83;0.83;;;10.20;99.90;;;;;;4985672;28;20290;-75
2023/11/02 05:15:03;;;;;;;1.27;0.90;;;10.20;99.90;;;;;;4984961;28;20225;-75
2023/11/02 05:17:29;;;;;;;1.37;1.03;;;10.20;99.90;;;;;;4992400;28;20317;-74
2023/11/02 05:19:55;;;;;;;0.80;0.70;;;10.10;99.90;;;;;;4993509;28;20230;-75
2023/11/02 05:22:21;;;;;;;0.60;0.60;;;10.10;99.90;;;;;;4985565;28;20226;-74
2023/11/02 05:24:46;;;;;;;1.40;0.83;;;10.00;99.90;;;;;;4987798;28;20465;-75
2023/11/02 05:27:12;;;;;;;0.67;0.67;;;10.00;99.90;;;;;;4983940;28;20237;-74
2023/11/02 05:29:38;;;;;;;1.20;1.07;;;10.00;99.90;;;;;;5002292;28;20318;-75
2023/11/02 05:32:04;;;;;;;1.13;1.00;;;10.00;99.90;;;;;;5016183;28;20241;-75
2023/11/02 05:34:30;;;;;;;2.77;1.00;;;10.00;99.90;;;;;;4986861;28;20218;-75
2023/11/02 05:36:55;;;;;;;2.93;0.90;;;10.00;99.90;;;;;;4967473;28;20904;-74
2023/11/02 05:39:21;;;;;;;0.80;0.80;;;10.10;99.90;;;;;;4985873;28;20245;-75
2023/11/02 05:41:47;;;;;;;1.53;1.20;;;10.10;99.90;;;;;;4983564;28;20222;-75
2023/11/02 05:44:12;;;;;;;2.40;1.00;;;10.10;99.90;;;;;;4991288;28;20222;-75
2023/11/02 05:46:38;;;;;;;1.57;1.17;;;10.00;99.90;;;;;;4987784;28;20253;-75
2023/11/02 05:49:04;;;;;;;0.93;0.93;;;10.00;99.90;;;;;;4966223;28;20257;-75
2023/11/02 05:51:29;;;;;;;0.80;0.80;;;9.90;99.90;;;;;;4984161;28;20226;-74
2023/11/02 05:53:55;;;;;;;0.93;0.90;;;9.90;99.90;;;;;;4982593;28;20218;-75
2023/11/02 05:56:21;;;;;;;1.40;0.90;;;9.90;99.90;;;;;;4984501;28;20441;-73
2023/11/02 05:58:52;;;;;;;0.87;0.87;;;9.90;99.90;;;;;;4992068;28;20535;-75
2023/11/02 06:01:18;;;;;;;2.20;1.30;;;10.00;99.90;;;;;;5002471;28;20218;-75
2023/11/02 06:03:43;;;;;;;0.83;0.83;;;10.00;99.90;;;;;;4993511;28;20457;-72
2023/11/02 06:06:10;;;;;;;1.40;1.20;;;10.00;99.90;;;;;;4985553;28;20229;-75
2023/11/02 06:08:36;;;;;;;0.70;0.70;;;9.90;99.90;;;;;;4985968;28;20230;-76
2023/11/02 06:11:03;;;;;;;1.13;1.10;;;9.90;99.90;;;;;;4971209;28;20445;-76
2023/11/02 06:13:29;;;;;;;0.80;0.80;;;9.90;99.90;;;;;;5002970;28;20714;-75
2023/11/02 06:15:55;;;;;;;0.70;0.70;;;9.80;99.90;;;;;;4990465;28;20508;-75
2023/11/02 06:18:22;;;;;;;1.07;0.97;;;9.80;99.90;;;;;;4971817;28;20488;-75
2023/11/02 06:20:47;;;;;;;0.93;0.93;;;9.80;99.90;;;;;;4984559;28;20214;-75
2023/11/02 06:23:13;;;;;;;1.60;1.03;;;9.80;99.90;;;;;;5000514;28;20821;-73
2023/11/02 06:25:39;;;;;;;1.07;0.97;;;9.80;99.90;;;;;;4988333;28;20218;-75
2023/11/02 06:28:04;;;;;;;1.20;0.93;;;9.80;99.90;;;;;;4980396;28;20235;-75
2023/11/02 06:30:30;;;;;;;1.17;0.97;;;9.80;99.90;;;;;;4983293;28;20222;-75
2023/11/02 06:33:03;;;;;;;1.77;0.90;;;9.70;99.90;;;;;;4996968;28;20218;-75
2023/11/02 06:35:29;;;;;;;1.10;1.00;;;9.80;99.90;;;;;;4991239;28;20269;-75
2023/11/02 06:37:59;;;;;;;1.00;1.00;;;9.80;99.90;;;;;;4966784;28;20464;-75
2023/11/02 06:40:26;;;;;;;1.10;1.10;;;9.80;99.90;;;;;;4983001;28;20222;-76
2023/11/02 06:42:52;;;;;;;3.20;1.50;;;9.80;99.90;;;;;;4978569;28;20494;-76
2023/11/02 06:45:18;;;;;;;2.20;0.93;;;9.80;99.90;;;;;;4982782;28;20477;-74
2023/11/02 06:47:45;;;;;;;1.40;1.20;;;9.80;99.90;;;;;;4967780;28;20466;-75
2023/11/02 06:50:10;;;;;;;1.23;1.00;;;9.80;99.90;;;;;;4980406;28;20247;-75
2023/11/02 06:52:36;;;;;;;1.20;1.10;;;9.80;99.90;;;;;;4981322;28;21049;-75
2023/11/02 06:55:02;;;;;;;2.03;1.10;;;9.80;99.90;;;;;;4991913;28;20300;-75
2023/11/02 06:57:28;;;;;;;2.00;1.13;;;9.80;99.90;;;;;;4995495;28;20254;-75
2023/11/02 06:59:53;;;;;;;5.67;1.10;;;9.80;99.90;;;;;;4987856;28;20630;-75
2023/11/02 07:02:22;;;;;;;1.73;1.10;;;9.80;99.90;;;;;;4983711;28;20770;-74
2023/11/02 07:04:48;;;;;;;1.17;1.07;;;9.70;99.90;;;;;;4980795;28;20222;-75
2023/11/02 07:07:14;;;;;;;1.50;1.10;;;9.70;99.90;;;;;;4987782;28;20469;-75
2023/11/02 07:09:40;;;;;;;2.20;1.57;;;9.70;99.90;;;;;;4966667;28;20515;-75
2023/11/02 07:12:06;;;;;;;1.40;1.30;;;9.70;99.90;;;;;;4982018;28;20317;-74
2023/11/02 07:14:32;;;;;;;1.33;1.00;;;9.70;99.90;;;;;;4983073;28;20305;-74
2023/11/02 07:16:57;;;;;;;1.27;1.17;;;9.80;99.90;;;;;;4979891;28;20716;-75
2023/11/02 07:19:23;;;;;;;1.67;1.37;;;9.80;99.90;;;;;;4982165;28;20226;-76
2023/11/02 07:21:49;;;;;;;2.83;1.20;;;9.70;99.90;;;;;;4977701;28;20225;-75
2023/11/02 07:24:14;;;;;;;1.40;1.30;;;9.70;99.90;;;;;;4978844;28;20297;-75
2023/11/02 07:26:40;;;;;;;1.80;1.40;;;9.70;99.90;;;;;;4998678;28;20281;-75
2023/11/02 07:29:06;;;;;;;3.43;1.20;;;9.80;99.90;;;;;;4979606;28;20222;-75
2023/11/02 07:31:31;;;;;;;1.00;0.80;;;9.70;99.90;;;;;;5014563;28;20677;-75
2023/11/02 07:33:57;;;;;;;1.13;1.03;;;9.70;99.90;;;;;;4996458;28;20897;-75
2023/11/02 07:36:22;;;;;;;1.23;1.00;;;9.80;99.90;;;;;;4981973;28;20293;-75
2023/11/02 07:38:48;;;;;;;0.90;0.90;;;9.70;99.90;;;;;;4962769;28;20252;-75
2023/11/02 07:41:15;;;;;;;2.60;1.20;;;9.80;99.90;;;;;;4977756;28;20219;-75
2023/11/02 07:43:41;;;;;;;1.20;1.10;;;9.80;99.90;;;;;;4994621;28;20685;-76
2023/11/02 07:46:06;;;;;;;1.03;0.90;;;9.80;99.90;;;;;;5010520;28;20454;-75
2023/11/02 07:48:33;;;;;;;1.10;1.00;;;9.80;99.90;;;;;;4980554;28;20808;-75
2023/11/02 07:50:59;;;;;;;1.47;1.10;;;9.80;99.90;;;;;;4978578;28;20297;-76
2023/11/02 07:53:24;;;;;;;1.73;1.40;;;9.80;99.90;;;;;;4981184;28;20470;-75
2023/11/02 07:55:50;;;;;;;0.83;0.80;;;9.80;99.90;;;;;;4979156;28;20454;-74
2023/11/02 07:58:16;;;;;;;5.60;1.60;;;9.80;99.90;;;;;;4981385;28;20231;-75
2023/11/02 08:00:41;;;;;;;1.17;1.17;;;9.80;99.90;;;;;;4977673;28;20313;-75
2023/11/02 08:03:07;;;;;;;1.43;1.23;;;9.80;99.90;;;;;;4981515;28;20221;-74
2023/11/02 08:05:33;;;;;;;2.90;1.50;;;9.80;99.90;;;;;;4979521;28;20219;-73
2023/11/02 08:07:58;;;;;;;1.30;1.20;;;9.90;99.90;;;;;;4976287;28;20680;-75
2023/11/02 08:10:24;;;;;;;1.57;1.40;;;9.90;99.90;;;;;;4980827;28;20241;-75
2023/11/02 08:12:50;;;;;;;7.30;3.20;;;9.90;99.90;;;;;;4979150;28;20222;-75
2023/11/02 08:15:15;;;;;;;4.80;2.47;;;9.90;99.90;;;;;;4993327;28;20231;-75
2023/11/02 08:17:42;;;;;;;8.00;5.63;;;9.90;99.90;;;;;;4978479;28;20226;-75
2023/11/02 08:20:10;;;;;;;2.90;2.60;;;9.90;99.90;;;;;;4980858;28;20226;-75
2023/11/02 08:22:36;;;;;;;8.00;3.87;;;9.90;99.90;;;;;;4981907;28;20480;-75
2023/11/02 08:25:03;;;;;;;6.40;4.70;;;9.90;99.90;;;;;;4977747;28;20518;-75
2023/11/02 08:27:29;;;;;;;6.67;4.73;;;10.00;99.90;;;;;;4973260;28;20868;-75
2023/11/02 08:29:54;;;;;;;4.63;3.80;;;10.00;99.90;;;;;;4986817;28;20464;-75
2023/11/02 08:32:21;;;;;;;2.33;2.20;;;10.00;99.90;;;;;;4986546;28;20248;-75
2023/11/02 08:34:47;;;;;;;2.37;2.00;;;10.00;99.90;;;;;;4997494;28;20762;-75
2023/11/02 08:37:13;;;;;;;3.43;2.63;;;10.00;99.90;;;;;;4987727;28;20506;-75
2023/11/02 08:39:39;;;;;;;3.37;3.07;;;10.00;99.90;;;;;;4971916;28;20321;-75
2023/11/02 08:42:05;;;;;;;4.30;3.50;;;10.00;99.90;;;;;;5015304;28;20364;-74
2023/11/02 08:44:31;;;;;;;1.90;1.80;;;10.10;99.90;;;;;;5015662;28;20457;-76
2023/11/02 08:46:57;;;;;;;4.77;3.77;;;10.00;99.90;;;;;;4977586;28;20458;-76
2023/11/02 08:49:22;;;;;;;3.03;2.63;;;10.10;99.90;;;;;;4981062;28;20854;-75
2023/11/02 08:51:48;;;;;;;1.83;1.73;;;10.10;99.90;;;;;;4983140;28;20214;-75
2023/11/02 08:54:15;;;;;;;2.83;2.63;;;10.20;99.90;;;;;;4969268;28;20680;-76
2023/11/02 08:56:42;;;;;;;2.20;2.10;;;10.20;99.90;;;;;;5000582;28;20477;-75
2023/11/02 08:59:08;;;;;;;2.53;2.13;;;10.20;99.90;;;;;;4985756;28;20458;-75
2023/11/02 09:01:34;;;;;;;3.47;2.27;;;10.20;99.90;;;;;;4984388;28;20466;-75
2023/11/02 09:04:00;;;;;;;2.53;2.33;;;10.30;99.90;;;;;;4998220;28;20521;-75
2023/11/02 09:06:26;;;;;;;3.40;2.13;;;10.20;99.90;;;;;;4984127;28;20225;-75
2023/11/02 09:08:56;;;;;;;2.37;2.17;;;10.20;99.90;;;;;;4983340;28;20851;-76
2023/11/02 09:11:23;;;;;;;2.07;1.87;;;10.20;99.90;;;;;;4984453;28;20994;-75
2023/11/02 09:13:48;;;;;;;3.53;2.67;;;10.20;99.90;;;;;;4982761;28;20484;-75
2023/11/02 09:16:14;;;;;;;4.80;1.70;;;10.30;99.90;;;;;;4969202;28;20466;-75
2023/11/02 09:18:40;;;;;;;2.53;2.10;;;10.30;99.90;;;;;;4984445;28;20240;-75
2023/11/02 09:21:06;;;;;;;1.73;1.63;;;10.30;99.90;;;;;;4983786;28;20215;-75
2023/11/02 09:23:34;;;;;;;6.03;2.30;;;10.30;99.90;;;;;;4990692;28;20282;-75
2023/11/02 09:26:03;;;;;;;2.27;2.00;;;10.30;99.90;;;;;;4981342;28;20458;-76
2023/11/02 09:28:28;;;;;;;5.33;1.97;;;10.30;99.90;;;;;;4988681;28;20496;-75
2023/11/02 09:30:54;;;;;;;2.00;1.90;;;10.30;99.90;;;;;;4999594;28;20490;-75
2023/11/02 09:33:20;;;;;;;1.90;1.80;;;10.30;99.90;;;;;;4988620;28;20252;-76
2023/11/02 09:35:46;;;;;;;2.70;1.67;;;10.40;99.90;;;;;;5008281;28;20240;-75
2023/11/02 09:38:13;;;;;;;2.17;1.97;;;10.40;99.90;;;;;;4991052;28;20321;-74
2023/11/02 09:40:39;;;;;;;2.10;1.90;;;10.40;99.90;;;;;;4984959;28;20576;-75
2023/11/02 09:43:05;;;;;;;3.83;2.00;;;10.40;99.90;;;;;;4978207;28;20532;-74
2023/11/02 09:45:32;;;;;;;1.87;1.50;;;10.40;99.90;;;;;;4965560;28;20222;-76
2023/11/02 09:47:59;;;;;;;1.90;1.80;;;10.40;99.90;;;;;;4989223;28;20468;-76
2023/11/02 09:50:26;;;;;;;2.67;2.37;;;10.40;99.90;;;;;;4969977;28;20462;-75
2023/11/02 09:52:54;;;;;;;6.73;3.90;;;10.40;99.90;;;;;;4966749;28;20470;-74
2023/11/02 09:55:20;;;;;;;8.70;5.70;;;10.50;99.90;;;;;;4980507;28;20837;-74
2023/11/02 09:57:48;;;;;;;3.73;3.20;;;10.50;99.90;;;;;;4982930;28;20473;-75
2023/11/02 10:00:17;;;;;;;1.73;1.63;;;10.60;99.90;;;;;;4968749;28;20513;-76
2023/11/02 10:02:49;;;;;;;2.47;1.93;;;10.60;99.90;;;;;;4988261;28;20469;-75
2023/11/02 10:05:15;;;;;;;1.70;1.60;;;10.60;99.90;;;;;;4982911;28;20458;-75
2023/11/02 10:07:41;;;;;;;2.73;2.53;;;10.70;99.90;;;;;;4980897;28;20477;-75
2023/11/02 10:10:09;;;;;;;1.90;1.47;;;10.70;99.90;;;;;;4999639;28;20462;-75
2023/11/02 10:12:35;;;;;;;1.40;1.30;;;10.80;99.90;;;;;;4982881;28;20215;-75
2023/11/02 10:15:04;;;;;;;1.00;1.00;;;10.80;99.90;;;;;;4996287;28;20466;-75
2023/11/02 10:17:40;;;;;;;1.27;1.13;;;10.80;99.90;;;;;;5013868;28;20219;-75
2023/11/02 10:20:09;;;;;;;1.47;1.37;;;10.80;99.90;;;;;;4981797;28;20473;-76
2023/11/02 10:22:35;;;;;;;1.10;1.00;;;10.90;99.90;;;;;;4988994;28;20465;-75
2023/11/02 10:25:01;;;;;;;1.47;1.27;;;10.90;99.90;;;;;;4963318;28;20548;-76
2023/11/02 10:27:28;;;;;;;2.03;1.30;;;10.90;99.90;;;;;;4983275;28;20826;-75
2023/11/02 10:29:54;;;;;;;1.43;1.33;;;11.00;99.90;;;;;;4966216;28;20512;-75
2023/11/02 10:32:22;;;;;;;1.13;1.13;;;11.00;99.90;;;;;;4983287;28;20483;-75
2023/11/02 10:34:49;;;;;;;1.07;0.90;;;11.00;99.90;;;;;;4979290;28;20497;-75
2023/11/02 10:37:27;;;;;;;2.60;1.20;;;11.00;99.90;;;;;;4972204;28;20453;-75
2023/11/02 10:39:53;;;;;;;1.20;0.87;;;11.10;99.90;;;;;;4981862;28;20466;-75
2023/11/02 10:42:19;;;;;;;1.07;0.80;;;11.10;99.90;;;;;;4995042;28;20832;-76
2023/11/02 10:44:46;;;;;;;1.13;1.03;;;11.10;99.90;;;;;;4975386;28;20297;-76
2023/11/02 10:47:14;;;;;;;1.33;1.07;;;11.20;99.90;;;;;;4989220;28;20841;-75
2023/11/02 10:49:42;;;;;;;1.20;1.10;;;11.20;99.90;;;;;;4987343;28;20470;-76
2023/11/02 10:52:09;;;;;;;1.07;0.80;;;11.20;99.90;;;;;;4982033;28;20975;-75
2023/11/02 10:54:41;;;;;;;1.17;0.90;;;11.20;99.90;;;;;;4967788;28;20461;-75
2023/11/02 10:57:17;;;;;;;2.00;0.90;;;11.30;99.90;;;;;;4967283;28;20474;-75
2023/11/02 10:59:43;;;;;;;0.77;0.77;;;11.30;99.90;;;;;;4993355;28;20985;-75
2023/11/02 11:02:13;;;;;;;3.97;1.33;;;11.30;99.90;;;;;;4998415;28;20473;-75
2023/11/02 11:04:43;;;;;;;1.27;1.00;;;11.30;99.90;;;;;;5000359;28;20969;-75
2023/11/02 11:07:10;;;;;;;1.57;0.93;;;11.30;99.90;;;;;;4985822;28;20507;-75
2023/11/02 11:09:37;;;;;;;1.03;0.93;;;11.30;99.90;;;;;;4983154;28;20603;-75
2023/11/02 11:12:04;;;;;;;1.00;0.90;;;11.40;99.90;;;;;;4999231;28;20465;-76
2023/11/02 11:14:31;;;;;;;2.00;0.87;;;11.40;99.90;;;;;;5001262;28;20471;-76
2023/11/02 11:16:58;;;;;;;1.20;1.10;;;11.40;99.90;;;;;;4997177;28;20819;-76
2023/11/02 11:19:28;;;;;;;0.93;0.63;;;11.40;99.90;;;;;;5000935;28;20472;-76
2023/11/02 11:21:56;;;;;;;1.47;1.13;;;11.40;99.90;;;;;;4996810;28;20469;-75
2023/11/02 11:24:30;;;;;;;1.80;1.10;;;11.40;99.90;;;;;;5000479;28;20559;-74
2023/11/02 11:26:58;;;;;;;1.30;0.80;;;11.50;99.90;;;;;;4999513;28;20473;-76
2023/11/02 11:29:37;;;;;;;1.43;0.97;;;11.40;99.90;;;;;;5001178;28;20469;-75
2023/11/02 11:32:04;;;;;;;1.77;0.90;;;11.40;99.90;;;;;;4998453;28;20479;-75
2023/11/02 11:34:54;;;;;;;6.57;1.47;;;11.40;99.90;;;;;;4985257;28;20456;-76
2023/11/02 11:37:35;;;;;;;1.70;0.90;;;11.40;99.90;;;;;;4996387;28;20476;-75
2023/11/02 11:40:08;;;;;;;1.10;0.93;;;11.40;99.90;;;;;;5004035;28;20521;-76
2023/11/02 11:42:52;;;;;;;1.43;1.00;;;11.50;99.90;;;;;;4984694;28;20469;-75
2023/11/02 11:45:31;;;;;;;1.83;1.07;;;11.50;99.90;;;;;;5003447;28;20835;-75
2023/11/02 11:48:00;;;;;;;0.70;0.70;;;11.40;99.90;;;;;;4961381;28;20485;-76
2023/11/02 11:50:30;;;;;;;1.30;1.17;;;11.50;99.90;;;;;;4979466;28;20524;-75
2023/11/02 11:53:15;;;;;;;1.27;0.97;;;11.50;99.90;;;;;;4979963;28;20462;-76
2023/11/02 11:55:45;;;;;;;2.40;1.03;;;11.50;99.90;;;;;;4999793;28;20465;-75
2023/11/02 11:58:12;;;;;;;1.43;0.60;;;11.50;99.90;;;;;;4981505;28;20477;-76
2023/11/02 12:00:53;;;;;;;0.90;0.90;;;11.50;99.90;;;;;;4982478;28;20560;-76
2023/11/02 12:03:36;;;;;;;1.37;1.10;;;11.50;99.90;;;;;;4963916;28;20469;-76
2023/11/02 12:06:10;;;;;;;5.70;1.17;;;11.50;99.90;;;;;;4978540;28;20461;-75
2023/11/02 12:08:46;;;;;;;0.80;0.80;;;11.50;99.90;;;;;;4978695;28;20481;-76
2023/11/02 12:11:13;;;;;;;1.00;0.73;;;11.50;99.90;;;;;;4996536;28;20461;-75
2023/11/02 12:14:00;;;;;;;2.20;0.80;;;11.50;99.90;;;;;;4973333;28;20465;-75
2023/11/02 12:16:33;;;;;;;0.80;0.70;;;11.50;99.90;;;;;;4978662;28;20856;-75
2023/11/02 12:19:00;;;;;;;1.53;1.03;;;11.60;99.90;;;;;;4978879;28;20477;-76
2023/11/02 12:21:27;;;;;;;1.03;1.03;;;11.60;99.90;;;;;;4964216;28;20454;-75
2023/11/02 12:23:54;;;;;;;4.57;0.90;;;11.60;99.90;;;;;;4963957;28;20494;-75
2023/11/02 12:26:21;;;;;;;6.20;2.00;;;11.60;99.90;;;;;;4978709;28;20847;-75
2023/11/02 12:28:52;;;;;;;3.70;1.00;;;11.60;99.90;;;;;;4981878;28;20467;-75
2023/11/02 12:31:32;;;;;;;1.70;1.00;;;11.60;99.90;;;;;;4988565;28;21029;-75
2023/11/02 12:33:59;;;;;;;2.40;1.10;;;11.60;99.90;;;;;;4961780;28;20462;-75
2023/11/02 12:36:26;;;;;;;1.70;0.67;;;11.60;99.90;;;;;;4979619;28;20484;-75
2023/11/02 12:38:54;;;;;;;2.60;1.23;;;11.60;99.90;;;;;;4986270;28;20547;-76
2023/11/02 12:41:26;;;;;;;0.87;0.73;;;11.60;99.90;;;;;;4981523;28;20483;-76
2023/11/02 12:44:03;;;;;;;2.23;1.07;;;11.60;99.90;;;;;;4989588;28;20456;-75
2023/11/02 12:46:31;;;;;;;1.70;1.20;;;11.60;99.90;;;;;;5005741;28;20473;-75
2023/11/02 12:49:11;;;;;;;1.07;0.87;;;11.60;99.90;;;;;;4978184;28;20472;-76
2023/11/02 12:51:37;;;;;;;1.83;0.90;;;11.60;99.90;;;;;;5003620;28;20502;-76
2023/11/02 12:54:10;;;;;;;1.33;1.00;;;11.60;99.90;;;;;;4990404;28;20495;-75
2023/11/02 12:56:35;;;;;;;1.87;1.00;;;11.60;99.90;;;;;;4984773;28;20468;-76
2023/11/02 12:59:05;;;;;;;2.90;0.70;;;11.60;99.90;;;;;;4979875;28;20509;-76
2023/11/02 13:01:44;;;;;;;7.90;0.90;;;11.70;99.90;;;;;;4978656;28;20827;-74
2023/11/02 13:04:12;;;;;;;3.13;1.10;;;11.70;99.90;;;;;;4979977;28;20476;-76